createdAt,value
2019-04-10T00:00:32.930Z,98034.26
2019-04-10T00:01:37.453Z,98024.88
2019-04-10T00:02:40.051Z,98033.80
2019-04-10T00:03:43.760Z,98034.54
2019-04-10T00:04:47.344Z,98035.75
2019-04-10T00:05:50.114Z,98037.64
2019-04-10T00:06:52.237Z,98027.06
2019-04-10T00:07:55.499Z,98035.55
2019-04-10T00:08:58.806Z,98033.77
2019-04-10T00:10:01.506Z,98040.86
2019-04-10T00:11:04.719Z,98033.91
2019-04-10T00:12:09.495Z,98038.55
2019-04-10T00:13:12.866Z,98038.55
2019-04-10T00:14:15.140Z,98041.52
2019-04-10T00:15:19.344Z,98035.55
2019-04-10T00:16:22.400Z,98030.88
2019-04-10T00:17:25.785Z,98033.91
2019-04-10T00:18:27.582Z,98035.86
2019-04-10T00:19:29.245Z,98042.77
2019-04-10T00:20:32.281Z,98033.31
2019-04-10T00:21:35.541Z,98038.52
2019-04-10T00:22:38.191Z,98031.56
2019-04-10T00:23:41.561Z,98040.74
2019-04-10T00:24:44.255Z,98030.34
2019-04-10T00:25:46.603Z,98042.77
2019-04-10T00:26:50.104Z,98031.46
2019-04-10T00:27:52.721Z,98041.16
2019-04-10T00:28:56.047Z,98039.52
2019-04-10T00:29:58.648Z,98038.36
2019-04-10T00:31:01.922Z,98038.36
2019-04-10T00:32:05.670Z,98043.34
2019-04-10T00:33:08.256Z,98040.84
2019-04-10T00:34:11.475Z,98036.27
2019-04-10T00:35:15.021Z,98036.18
2019-04-10T00:36:18.266Z,98041.39
2019-04-10T00:37:26.062Z,98051.16
2019-04-10T00:38:26.022Z,98045.89
2019-04-10T00:39:28.737Z,98035.37
2019-04-10T00:40:31.178Z,98040.84
2019-04-10T00:41:34.429Z,98039.38
2019-04-10T00:42:37.027Z,98039.44
2019-04-10T00:43:40.137Z,98037.59
2019-04-10T00:44:43.849Z,98040.32
2019-04-10T00:45:46.260Z,98034.70
2019-04-10T00:46:48.713Z,98042.77
2019-04-10T00:47:51.222Z,98043.80
2019-04-10T00:48:54.457Z,98038.47
2019-04-10T00:49:57.894Z,98045.89
2019-04-10T00:51:01.275Z,98051.06
2019-04-10T00:52:04.064Z,98048.97
2019-04-10T00:53:06.537Z,98041.25
2019-04-10T00:54:09.846Z,98044.59
2019-04-10T00:55:13.246Z,98048.10
2019-04-10T00:56:16.566Z,98043.20
2019-04-10T00:57:18.902Z,98042.77
2019-04-10T00:58:22.439Z,98044.64
2019-04-10T00:59:26.136Z,98045.45
2019-04-10T01:00:28.779Z,98037.30
2019-04-10T01:01:32.023Z,98041.44
2019-04-10T01:02:34.731Z,98039.58
2019-04-10T01:03:43.490Z,98041.64
2019-04-10T01:04:46.734Z,98034.38
2019-04-10T01:05:51.308Z,98041.44
2019-04-10T01:06:54.540Z,98046.11
2019-04-10T01:07:57.160Z,98041.92
2019-04-10T01:08:59.684Z,98041.59
2019-04-10T01:10:05.975Z,98042.80
2019-04-10T01:11:08.948Z,98039.59
2019-04-10T01:12:11.956Z,98041.19
2019-04-10T01:13:14.642Z,98039.86
2019-04-10T01:14:17.905Z,98046.20
2019-04-10T01:15:20.910Z,98040.60
2019-04-10T01:16:23.358Z,98038.30
2019-04-10T01:17:26.341Z,98038.05
2019-04-10T01:18:28.987Z,98040.17
2019-04-10T01:19:32.161Z,98033.10
2019-04-10T01:20:34.814Z,98042.27
2019-04-10T01:21:37.369Z,98040.47
2019-04-10T01:22:39.441Z,98043.31
2019-04-10T01:23:43.212Z,98035.16
2019-04-10T01:24:46.064Z,98044.55
2019-04-10T01:25:48.852Z,98034.81
2019-04-10T01:26:53.540Z,98045.41
2019-04-10T01:27:56.336Z,98041.16
2019-04-10T01:28:58.987Z,98039.23
2019-04-10T01:30:02.348Z,98040.14
2019-04-10T01:31:06.752Z,98039.92
2019-04-10T01:32:09.810Z,98039.13
2019-04-10T01:33:12.589Z,98039.59
2019-04-10T01:34:14.431Z,98047.69
2019-04-10T01:35:16.742Z,98046.64
2019-04-10T01:36:18.903Z,98049.70
2019-04-10T01:37:22.759Z,98046.28
2019-04-10T01:38:27.723Z,98047.69
2019-04-10T01:39:32.614Z,98043.88
2019-04-10T01:40:35.159Z,98037.85
2019-04-10T01:41:37.503Z,98040.16
2019-04-10T01:42:40.649Z,98042.63
2019-04-10T01:43:45.349Z,98036.73
2019-04-10T01:44:49.012Z,98036.28
2019-04-10T01:45:51.563Z,98034.22
2019-04-10T01:46:54.887Z,98039.35
2019-04-10T01:47:57.525Z,98031.29
2019-04-10T01:48:59.711Z,98036.77
2019-04-10T01:50:02.497Z,98039.59
2019-04-10T01:51:06.733Z,98038.62
2019-04-10T01:52:08.931Z,98040.50
2019-04-10T01:53:11.363Z,98039.88
2019-04-10T01:54:15.172Z,98042.22
2019-04-10T01:55:25.256Z,98035.63
2019-04-10T01:56:30.238Z,98033.31
2019-04-10T01:57:26.853Z,98040.72
2019-04-10T01:58:29.389Z,98036.34
2019-04-10T01:59:34.444Z,98035.72
2019-04-10T02:00:38.318Z,98037.75
2019-04-10T02:02:00.988Z,98035.72
2019-04-10T02:03:03.995Z,98034.78
2019-04-10T02:04:06.750Z,98035.86
2019-04-10T02:05:09.982Z,98041.20
2019-04-10T02:06:13.323Z,98038.20
2019-04-10T02:07:16.114Z,98042.25
2019-04-10T02:08:19.002Z,98037.74
2019-04-10T02:09:21.485Z,98043.23
2019-04-10T02:10:24.053Z,98038.97
2019-04-10T02:11:27.979Z,98043.19
2019-04-10T02:12:30.603Z,98041.20
2019-04-10T02:13:33.857Z,98042.08
2019-04-10T02:14:36.871Z,98051.53
2019-04-10T02:15:38.820Z,98052.38
2019-04-10T02:16:41.219Z,98058.03
2019-04-10T02:17:44.508Z,98049.95
2019-04-10T02:18:47.856Z,98051.28
2019-04-10T02:19:50.309Z,98060.36
2019-04-10T02:20:53.540Z,98059.04
2019-04-10T02:21:56.160Z,98051.01
2019-04-10T02:22:58.560Z,98046.96
2019-04-10T02:24:00.958Z,98056.00
2019-04-10T02:25:05.237Z,98050.31
2019-04-10T02:26:07.925Z,98052.38
2019-04-10T02:27:10.477Z,98048.67
2019-04-10T02:28:13.083Z,98052.05
2019-04-10T02:29:15.604Z,98050.94
2019-04-10T02:30:19.747Z,98053.87
2019-04-10T02:31:23.642Z,98050.77
2019-04-10T02:32:26.539Z,98050.59
2019-04-10T02:33:31.416Z,98050.42
2019-04-10T02:34:33.793Z,98053.00
2019-04-10T02:35:36.237Z,98043.67
2019-04-10T02:36:39.174Z,98051.28
2019-04-10T02:37:41.735Z,98053.66
2019-04-10T02:38:59.287Z,98056.63
2019-04-10T02:39:52.159Z,98057.95
2019-04-10T02:40:53.067Z,98056.80
2019-04-10T02:41:56.234Z,98051.02
2019-04-10T02:42:59.101Z,98057.78
2019-04-10T02:44:02.973Z,98047.91
2019-04-10T02:45:06.818Z,98055.02
2019-04-10T02:46:11.283Z,98052.23
2019-04-10T02:47:14.685Z,98059.73
2019-04-10T02:48:17.135Z,98054.28
2019-04-10T02:49:20.252Z,98061.16
2019-04-10T02:50:25.081Z,98056.94
2019-04-10T02:51:27.730Z,98060.39
2019-04-10T02:52:30.940Z,98061.09
2019-04-10T02:53:35.077Z,98055.75
2019-04-10T02:54:37.638Z,98057.56
2019-04-10T02:55:40.867Z,98060.53
2019-04-10T02:56:44.219Z,98064.27
2019-04-10T02:57:47.933Z,98061.03
2019-04-10T02:58:51.549Z,98065.25
2019-04-10T02:59:55.635Z,98065.84
2019-04-10T03:00:59.083Z,98066.47
2019-04-10T03:02:02.450Z,98063.02
2019-04-10T03:03:05.574Z,98065.04
2019-04-10T03:04:09.151Z,98068.64
2019-04-10T03:05:13.552Z,98068.53
2019-04-10T03:06:18.739Z,98061.34
2019-04-10T03:07:22.057Z,98069.30
2019-04-10T03:08:41.023Z,98064.09
2019-04-10T03:09:46.036Z,98066.34
2019-04-10T03:10:44.156Z,98061.03
2019-04-10T03:11:43.736Z,98067.45
2019-04-10T03:12:48.110Z,98069.33
2019-04-10T03:13:53.277Z,98062.88
2019-04-10T03:14:56.387Z,98063.72
2019-04-10T03:16:00.013Z,98064.66
2019-04-10T03:17:02.552Z,98065.95
2019-04-10T03:18:06.369Z,98066.05
2019-04-10T03:19:09.461Z,98061.55
2019-04-10T03:20:12.018Z,98069.30
2019-04-10T03:21:15.331Z,98065.98
2019-04-10T03:22:18.779Z,98067.34
2019-04-10T03:23:21.502Z,98073.00
2019-04-10T03:24:23.327Z,98067.28
2019-04-10T03:25:28.871Z,98068.42
2019-04-10T03:26:32.039Z,98064.45
2019-04-10T03:27:34.559Z,98067.88
2019-04-10T03:28:37.248Z,98061.62
2019-04-10T03:29:39.998Z,98062.67
2019-04-10T03:30:41.820Z,98066.97
2019-04-10T03:31:45.287Z,98066.97
2019-04-10T03:32:57.235Z,98064.41
2019-04-10T03:33:58.715Z,98065.91
2019-04-10T03:35:06.543Z,98074.02
2019-04-10T03:36:09.518Z,98068.73
2019-04-10T03:37:12.137Z,98081.06
2019-04-10T03:38:14.764Z,98072.86
2019-04-10T03:39:17.468Z,98070.34
2019-04-10T03:40:19.654Z,98073.00
2019-04-10T03:41:21.788Z,98071.70
2019-04-10T03:42:25.275Z,98073.30
2019-04-10T03:43:27.897Z,98077.40
2019-04-10T03:44:30.469Z,98073.37
2019-04-10T03:45:33.001Z,98074.59
2019-04-10T03:46:37.075Z,98073.00
2019-04-10T03:47:39.728Z,98076.66
2019-04-10T03:48:42.441Z,98076.62
2019-04-10T03:49:44.464Z,98075.77
2019-04-10T03:50:47.933Z,98081.41
2019-04-10T03:51:50.413Z,98081.06
2019-04-10T03:52:53.453Z,98091.02
2019-04-10T03:53:56.608Z,98086.05
2019-04-10T03:54:58.719Z,98088.36
2019-04-10T03:56:01.313Z,98091.57
2019-04-10T03:57:04.571Z,98085.21
2019-04-10T03:58:07.207Z,98088.28
2019-04-10T03:59:09.452Z,98091.81
2019-04-10T04:00:12.276Z,98090.66
2019-04-10T04:01:14.536Z,98094.33
2019-04-10T04:02:18.230Z,98083.70
2019-04-10T04:03:20.394Z,98083.45
2019-04-10T04:04:23.774Z,98090.62
2019-04-10T04:05:26.693Z,98083.73
2019-04-10T04:06:31.427Z,98088.69
2019-04-10T04:07:34.669Z,98092.39
2019-04-10T04:08:39.467Z,98090.05
2019-04-10T04:09:41.929Z,98092.98
2019-04-10T04:10:44.747Z,98093.86
2019-04-10T04:11:48.133Z,98086.03
2019-04-10T04:12:50.977Z,98087.05
2019-04-10T04:13:53.090Z,98090.59
2019-04-10T04:14:55.498Z,98094.54
2019-04-10T04:15:58.143Z,98095.53
2019-04-10T04:17:01.922Z,98093.56
2019-04-10T04:18:05.141Z,98101.45
2019-04-10T04:19:08.024Z,98091.61
2019-04-10T04:20:10.918Z,98096.70
2019-04-10T04:21:15.056Z,98093.25
2019-04-10T04:22:18.802Z,98094.17
2019-04-10T04:23:21.522Z,98099.06
2019-04-10T04:24:25.509Z,98094.45
2019-04-10T04:25:28.850Z,98100.45
2019-04-10T04:26:31.718Z,98104.55
2019-04-10T04:27:35.649Z,98097.38
2019-04-10T04:28:38.219Z,98102.86
2019-04-10T04:29:41.335Z,98101.84
2019-04-10T04:30:43.862Z,98104.02
2019-04-10T04:31:46.371Z,98107.08
2019-04-10T04:32:49.119Z,98116.77
2019-04-10T04:33:51.957Z,98109.23
2019-04-10T04:34:54.276Z,98114.12
2019-04-10T04:35:57.137Z,98108.97
2019-04-10T04:37:00.264Z,98108.80
2019-04-10T04:38:02.646Z,98111.45
2019-04-10T04:39:18.008Z,98110.34
2019-04-10T04:40:13.180Z,98110.74
2019-04-10T04:41:15.789Z,98107.77
2019-04-10T04:42:18.189Z,98114.49
2019-04-10T04:43:21.785Z,98111.17
2019-04-10T04:44:24.755Z,98113.97
2019-04-10T04:45:27.850Z,98124.41
2019-04-10T04:46:30.311Z,98122.52
2019-04-10T04:47:33.307Z,98122.50
2019-04-10T04:48:35.572Z,98124.39
2019-04-10T04:49:37.833Z,98128.86
2019-04-10T04:50:40.246Z,98128.50
2019-04-10T04:51:43.769Z,98128.41
2019-04-10T04:52:45.810Z,98126.20
2019-04-10T04:53:50.489Z,98122.45
2019-04-10T04:54:55.247Z,98127.53
2019-04-10T04:55:57.854Z,98124.60
2019-04-10T04:57:00.779Z,98126.98
2019-04-10T04:58:04.279Z,98122.88
2019-04-10T04:59:07.930Z,98124.92
2019-04-10T05:00:10.495Z,98122.78
2019-04-10T05:01:12.759Z,98131.16
2019-04-10T05:02:15.085Z,98128.19
2019-04-10T05:03:17.230Z,98127.84
2019-04-10T05:04:19.672Z,98130.03
2019-04-10T05:05:25.270Z,98130.56
2019-04-10T05:06:27.368Z,98130.33
2019-04-10T05:07:29.980Z,98127.84
2019-04-10T05:08:32.661Z,98128.33
2019-04-10T05:09:38.750Z,98123.25
2019-04-10T05:10:39.852Z,98126.03
2019-04-10T05:11:42.694Z,98129.45
2019-04-10T05:12:45.251Z,98133.54
2019-04-10T05:13:48.956Z,98129.52
2019-04-10T05:14:51.772Z,98135.00
2019-04-10T05:15:53.560Z,98127.70
2019-04-10T05:16:55.624Z,98126.75
2019-04-10T05:17:58.430Z,98133.81
2019-04-10T05:19:01.676Z,98132.42
2019-04-10T05:20:07.019Z,98128.56
2019-04-10T05:21:10.614Z,98128.13
2019-04-10T05:22:14.324Z,98140.77
2019-04-10T05:23:18.058Z,98136.38
2019-04-10T05:24:20.561Z,98136.65
2019-04-10T05:25:23.427Z,98140.21
2019-04-10T05:26:28.247Z,98138.02
2019-04-10T05:27:30.915Z,98140.31
2019-04-10T05:28:33.359Z,98144.12
2019-04-10T05:29:38.742Z,98145.10
2019-04-10T05:30:41.143Z,98136.65
2019-04-10T05:31:44.688Z,98147.86
2019-04-10T05:32:47.268Z,98142.23
2019-04-10T05:33:51.264Z,98142.33
2019-04-10T05:34:54.550Z,98147.86
2019-04-10T05:35:57.493Z,98145.84
2019-04-10T05:36:59.903Z,98149.15
2019-04-10T05:38:02.618Z,98151.98
2019-04-10T05:39:06.815Z,98143.88
2019-04-10T05:40:09.856Z,98145.34
2019-04-10T05:41:13.331Z,98152.09
2019-04-10T05:42:15.401Z,98150.20
2019-04-10T05:43:18.033Z,98153.13
2019-04-10T05:44:20.256Z,98155.58
2019-04-10T05:45:23.274Z,98157.39
2019-04-10T05:46:25.958Z,98159.45
2019-04-10T05:47:28.401Z,98164.63
2019-04-10T05:48:31.418Z,98169.23
2019-04-10T05:49:33.919Z,98167.45
2019-04-10T05:50:37.760Z,98161.58
2019-04-10T05:51:40.001Z,98168.70
2019-04-10T05:52:43.023Z,98177.34
2019-04-10T05:53:45.221Z,98174.43
2019-04-10T05:54:47.393Z,98172.65
2019-04-10T05:55:49.673Z,98178.84
2019-04-10T05:56:52.650Z,98182.08
2019-04-10T05:57:55.319Z,98178.55
2019-04-10T05:58:57.420Z,98178.84
2019-04-10T06:00:00.549Z,98185.48
2019-04-10T06:01:05.370Z,98188.45
2019-04-10T06:02:08.158Z,98183.16
2019-04-10T06:03:12.358Z,98187.05
2019-04-10T06:04:15.125Z,98182.98
2019-04-10T06:05:18.151Z,98183.08
2019-04-10T06:06:20.544Z,98185.92
2019-04-10T06:07:23.159Z,98180.80
2019-04-10T06:08:25.815Z,98183.72
2019-04-10T06:09:28.957Z,98187.81
2019-04-10T06:10:32.128Z,98184.81
2019-04-10T06:11:35.758Z,98194.59
2019-04-10T06:12:38.359Z,98186.30
2019-04-10T06:13:40.915Z,98186.38
2019-04-10T06:14:43.674Z,98190.33
2019-04-10T06:15:45.606Z,98186.61
2019-04-10T06:16:48.976Z,98187.08
2019-04-10T06:17:52.523Z,98185.44
2019-04-10T06:18:54.538Z,98189.46
2019-04-10T06:19:58.663Z,98188.02
2019-04-10T06:21:02.975Z,98184.28
2019-04-10T06:22:06.194Z,98185.44
2019-04-10T06:23:09.485Z,98180.41
2019-04-10T06:24:12.010Z,98183.58
2019-04-10T06:25:16.055Z,98188.95
2019-04-10T06:26:19.885Z,98194.94
2019-04-10T06:27:23.951Z,98193.16
2019-04-10T06:28:27.946Z,98188.09
2019-04-10T06:29:31.438Z,98192.14
2019-04-10T06:30:34.868Z,98187.24
2019-04-10T06:31:37.315Z,98189.41
2019-04-10T06:32:39.810Z,98184.23
2019-04-10T06:33:42.458Z,98189.41
2019-04-10T06:34:46.072Z,98190.94
2019-04-10T06:35:49.006Z,98189.55
2019-04-10T06:36:51.905Z,98189.12
2019-04-10T06:37:54.743Z,98185.60
2019-04-10T06:38:57.500Z,98186.33
2019-04-10T06:40:12.998Z,98190.48
2019-04-10T06:41:08.747Z,98189.30
2019-04-10T06:42:12.102Z,98189.30
2019-04-10T06:43:15.020Z,98183.84
2019-04-10T06:44:17.626Z,98182.16
2019-04-10T06:45:20.491Z,98182.45
2019-04-10T06:46:22.670Z,98185.17
2019-04-10T06:47:25.191Z,98185.92
2019-04-10T06:48:27.895Z,98180.48
2019-04-10T06:49:31.138Z,98191.09
2019-04-10T06:50:33.549Z,98187.64
2019-04-10T06:51:36.019Z,98187.12
2019-04-10T06:52:41.004Z,98192.70
2019-04-10T06:53:50.356Z,98195.64
2019-04-10T06:54:51.536Z,98194.80
2019-04-10T06:55:54.440Z,98192.94
2019-04-10T06:56:56.797Z,98193.69
2019-04-10T06:57:59.723Z,98196.52
2019-04-10T06:59:04.567Z,98195.67
2019-04-10T07:00:13.753Z,98197.00
2019-04-10T07:01:16.636Z,98195.39
2019-04-10T07:02:24.544Z,98192.74
2019-04-10T07:03:25.197Z,98203.50
2019-04-10T07:04:28.404Z,98195.92
2019-04-10T07:05:39.784Z,98204.75
2019-04-10T07:06:47.210Z,98208.60
2019-04-10T07:07:49.859Z,98205.50
2019-04-10T07:08:48.841Z,98203.78
2019-04-10T07:09:49.600Z,98200.78
2019-04-10T07:11:02.026Z,98207.17
2019-04-10T07:12:01.027Z,98206.30
2019-04-10T07:13:06.311Z,98206.98
2019-04-10T07:14:13.451Z,98210.09
2019-04-10T07:15:13.237Z,98216.14
2019-04-10T07:16:15.924Z,98209.08
2019-04-10T07:17:18.695Z,98204.92
2019-04-10T07:18:21.972Z,98212.85
2019-04-10T07:19:24.542Z,98210.06
2019-04-10T07:20:26.964Z,98199.72
2019-04-10T07:21:30.683Z,98209.08
2019-04-10T07:22:33.947Z,98204.23
2019-04-10T07:23:36.863Z,98200.07
2019-04-10T07:24:42.467Z,98206.11
2019-04-10T07:25:45.761Z,98202.41
2019-04-10T07:26:51.767Z,98204.77
2019-04-10T07:27:54.372Z,98207.67
2019-04-10T07:28:58.790Z,98204.63
2019-04-10T07:30:01.730Z,98211.09
2019-04-10T07:31:08.133Z,98210.04
2019-04-10T07:32:10.625Z,98214.18
2019-04-10T07:33:14.835Z,98210.09
2019-04-10T07:34:20.083Z,98209.95
2019-04-10T07:35:21.942Z,98214.36
2019-04-10T07:36:26.667Z,98216.90
2019-04-10T07:37:29.589Z,98211.07
2019-04-10T07:38:32.918Z,98213.48
2019-04-10T07:39:35.371Z,98209.59
2019-04-10T07:40:38.627Z,98208.84
2019-04-10T07:41:41.784Z,98206.97
2019-04-10T07:42:44.217Z,98206.66
2019-04-10T07:43:52.475Z,98213.01
2019-04-10T07:44:51.535Z,98220.69
2019-04-10T07:45:56.625Z,98214.40
2019-04-10T07:46:59.728Z,98216.00
2019-04-10T07:48:02.565Z,98216.69
2019-04-10T07:49:04.907Z,98212.83
2019-04-10T07:50:08.808Z,98213.47
2019-04-10T07:51:11.376Z,98215.98
2019-04-10T07:52:13.643Z,98219.59
2019-04-10T07:53:16.983Z,98211.22
2019-04-10T07:54:21.201Z,98212.24
2019-04-10T07:55:25.258Z,98208.93
2019-04-10T07:56:27.811Z,98220.97
2019-04-10T07:57:30.751Z,98208.64
2019-04-10T07:58:33.403Z,98217.18
2019-04-10T07:59:35.877Z,98210.38
2019-04-10T08:00:38.788Z,98212.27
2019-04-10T08:01:42.073Z,98211.59
2019-04-10T08:02:44.849Z,98215.42
2019-04-10T08:03:47.836Z,98215.66
2019-04-10T08:04:50.144Z,98213.69
2019-04-10T08:05:52.633Z,98202.98
2019-04-10T08:06:54.909Z,98210.56
2019-04-10T08:07:57.600Z,98214.62
2019-04-10T08:09:01.291Z,98214.85
2019-04-10T08:10:07.812Z,98218.13
2019-04-10T08:11:10.834Z,98216.21
2019-04-10T08:12:14.066Z,98208.45
2019-04-10T08:13:16.938Z,98216.09
2019-04-10T08:14:19.656Z,98223.46
2019-04-10T08:15:22.231Z,98213.73
2019-04-10T08:16:25.352Z,98210.45
2019-04-10T08:17:28.273Z,98211.34
2019-04-10T08:18:31.717Z,98217.75
2019-04-10T08:19:35.032Z,98211.16
2019-04-10T08:20:38.585Z,98214.34
2019-04-10T08:21:40.621Z,98211.13
2019-04-10T08:22:43.213Z,98216.08
2019-04-10T08:23:46.439Z,98222.24
2019-04-10T08:24:49.207Z,98217.81
2019-04-10T08:25:51.732Z,98225.25
2019-04-10T08:26:54.824Z,98218.84
2019-04-10T08:27:57.493Z,98225.55
2019-04-10T08:29:01.597Z,98225.30
2019-04-10T08:30:07.387Z,98224.22
2019-04-10T08:31:10.624Z,98225.55
2019-04-10T08:32:13.910Z,98222.39
2019-04-10T08:33:17.478Z,98226.17
2019-04-10T08:34:19.801Z,98231.44
2019-04-10T08:35:23.002Z,98221.91
2019-04-10T08:36:25.928Z,98233.08
2019-04-10T08:37:28.315Z,98227.13
2019-04-10T08:38:32.376Z,98232.98
2019-04-10T08:39:41.162Z,98230.81
2019-04-10T08:40:38.827Z,98227.56
2019-04-10T08:41:41.597Z,98233.55
2019-04-10T08:42:46.032Z,98236.02
2019-04-10T08:43:50.335Z,98236.20
2019-04-10T08:44:54.198Z,98230.81
2019-04-10T08:45:56.950Z,98227.02
2019-04-10T08:47:00.186Z,98234.63
2019-04-10T08:48:03.583Z,98231.50
2019-04-10T08:49:06.039Z,98232.77
2019-04-10T08:50:09.657Z,98231.56
2019-04-10T08:51:12.497Z,98239.48
2019-04-10T08:52:14.878Z,98234.72
2019-04-10T08:53:17.999Z,98238.64
2019-04-10T08:54:20.723Z,98238.09
2019-04-10T08:55:26.045Z,98237.13
2019-04-10T08:56:30.104Z,98232.58
2019-04-10T08:57:34.094Z,98237.91
2019-04-10T08:58:37.076Z,98235.55
2019-04-10T08:59:40.216Z,98230.05
2019-04-10T09:00:43.264Z,98231.66
2019-04-10T09:01:45.835Z,98231.13
2019-04-10T09:02:48.668Z,98229.30
2019-04-10T09:03:51.268Z,98232.21
2019-04-10T09:04:53.772Z,98230.17
2019-04-10T09:05:56.534Z,98230.81
2019-04-10T09:07:01.408Z,98234.88
2019-04-10T09:08:04.968Z,98228.65
2019-04-10T09:09:07.699Z,98228.09
2019-04-10T09:10:12.316Z,98228.28
2019-04-10T09:11:23.048Z,98223.14
2019-04-10T09:12:19.816Z,98239.39
2019-04-10T09:13:22.534Z,98228.90
2019-04-10T09:14:25.203Z,98228.65
2019-04-10T09:15:28.470Z,98232.61
2019-04-10T09:16:31.149Z,98226.50
2019-04-10T09:17:33.914Z,98223.70
2019-04-10T09:18:36.970Z,98229.51
2019-04-10T09:19:40.247Z,98219.94
2019-04-10T09:20:42.926Z,98226.84
2019-04-10T09:21:45.767Z,98229.20
2019-04-10T09:23:10.795Z,98225.20
2019-04-10T09:23:56.212Z,98225.37
2019-04-10T09:24:58.439Z,98220.73
2019-04-10T09:26:01.808Z,98221.91
2019-04-10T09:27:05.727Z,98223.11
2019-04-10T09:28:08.558Z,98222.73
2019-04-10T09:29:11.834Z,98221.12
2019-04-10T09:30:14.813Z,98218.47
2019-04-10T09:31:17.794Z,98219.92
2019-04-10T09:32:22.281Z,98221.91
2019-04-10T09:33:27.767Z,98217.77
2019-04-10T09:34:28.877Z,98214.48
2019-04-10T09:35:31.297Z,98218.79
2019-04-10T09:36:33.731Z,98217.97
2019-04-10T09:37:36.085Z,98213.08
2019-04-10T09:38:39.050Z,98215.95
2019-04-10T09:39:41.553Z,98211.44
2019-04-10T09:40:44.697Z,98209.55
2019-04-10T09:41:47.362Z,98216.00
2019-04-10T09:42:50.021Z,98214.40
2019-04-10T09:43:52.350Z,98214.23
2019-04-10T09:44:55.126Z,98214.61
2019-04-10T09:45:58.215Z,98206.12
2019-04-10T09:47:03.342Z,98209.53
2019-04-10T09:48:08.414Z,98201.80
2019-04-10T09:49:12.513Z,98196.98
2019-04-10T09:50:17.367Z,98197.41
2019-04-10T09:51:19.969Z,98198.26
2019-04-10T09:52:22.162Z,98203.96
2019-04-10T09:53:25.120Z,98204.55
2019-04-10T09:54:28.136Z,98199.61
2019-04-10T09:55:30.177Z,98194.75
2019-04-10T09:56:32.808Z,98202.05
2019-04-10T09:57:34.992Z,98197.18
2019-04-10T09:58:37.282Z,98200.42
2019-04-10T09:59:41.323Z,98193.14
2019-04-10T10:00:45.865Z,98199.20
2019-04-10T10:01:48.601Z,98197.11
2019-04-10T10:02:51.025Z,98189.96
2019-04-10T10:03:54.805Z,98192.55
2019-04-10T10:04:58.024Z,98196.70
2019-04-10T10:06:01.688Z,98199.73
2019-04-10T10:07:05.622Z,98191.27
2019-04-10T10:08:10.588Z,98196.22
2019-04-10T10:09:14.752Z,98198.14
2019-04-10T10:10:17.424Z,98194.19
2019-04-10T10:11:20.231Z,98189.58
2019-04-10T10:12:25.666Z,98186.16
2019-04-10T10:13:28.280Z,98194.27
2019-04-10T10:14:31.943Z,98197.89
2019-04-10T10:15:34.231Z,98192.31
2019-04-10T10:16:36.390Z,98181.55
2019-04-10T10:17:39.214Z,98188.01
2019-04-10T10:18:41.555Z,98189.70
2019-04-10T10:19:44.651Z,98189.81
2019-04-10T10:20:48.187Z,98188.53
2019-04-10T10:21:50.741Z,98188.05
2019-04-10T10:22:53.634Z,98189.72
2019-04-10T10:23:56.734Z,98178.65
2019-04-10T10:24:59.355Z,98179.19
2019-04-10T10:26:01.788Z,98182.16
2019-04-10T10:27:05.349Z,98185.36
2019-04-10T10:28:07.507Z,98185.98
2019-04-10T10:29:09.979Z,98184.75
2019-04-10T10:30:13.487Z,98179.34
2019-04-10T10:31:15.825Z,98189.59
2019-04-10T10:32:19.209Z,98181.26
2019-04-10T10:33:21.695Z,98186.30
2019-04-10T10:34:24.591Z,98181.25
2019-04-10T10:35:27.323Z,98186.50
2019-04-10T10:36:36.847Z,98188.63
2019-04-10T10:37:34.329Z,98191.83
2019-04-10T10:38:37.048Z,98194.94
2019-04-10T10:39:41.064Z,98195.33
2019-04-10T10:40:44.592Z,98187.98
2019-04-10T10:41:47.537Z,98196.13
2019-04-10T10:42:50.113Z,98198.70
2019-04-10T10:43:53.012Z,98193.46
2019-04-10T10:44:56.445Z,98189.44
2019-04-10T10:45:58.960Z,98184.03
2019-04-10T10:47:02.093Z,98188.88
2019-04-10T10:48:08.193Z,98185.13
2019-04-10T10:49:08.433Z,98191.23
2019-04-10T10:50:11.181Z,98188.70
2019-04-10T10:51:13.560Z,98187.86
2019-04-10T10:52:17.449Z,98182.85
2019-04-10T10:53:19.909Z,98183.80
2019-04-10T10:54:23.511Z,98184.63
2019-04-10T10:55:26.424Z,98181.03
2019-04-10T10:56:28.748Z,98184.93
2019-04-10T10:57:31.349Z,98190.02
2019-04-10T10:58:33.821Z,98190.27
2019-04-10T10:59:37.643Z,98190.69
2019-04-10T11:00:41.397Z,98192.86
2019-04-10T11:01:44.956Z,98188.66
2019-04-10T11:02:47.685Z,98185.21
2019-04-10T11:03:50.736Z,98188.27
2019-04-10T11:04:53.873Z,98192.06
2019-04-10T11:05:58.254Z,98187.75
2019-04-10T11:07:01.225Z,98183.62
2019-04-10T11:08:05.392Z,98187.87
2019-04-10T11:09:10.714Z,98182.94
2019-04-10T11:10:15.002Z,98188.77
2019-04-10T11:11:17.748Z,98181.36
2019-04-10T11:12:20.077Z,98182.52
2019-04-10T11:13:22.680Z,98184.46
2019-04-10T11:14:27.716Z,98188.33
2019-04-10T11:15:30.686Z,98189.09
2019-04-10T11:16:33.931Z,98187.88
2019-04-10T11:17:38.217Z,98184.15
2019-04-10T11:18:42.426Z,98194.45
2019-04-10T11:19:46.873Z,98194.40
2019-04-10T11:20:49.910Z,98185.03
2019-04-10T11:21:51.700Z,98187.00
2019-04-10T11:22:55.734Z,98186.67
2019-04-10T11:23:58.410Z,98185.65
2019-04-10T11:25:01.467Z,98189.97
2019-04-10T11:26:04.676Z,98186.10
2019-04-10T11:27:08.543Z,98186.80
2019-04-10T11:28:12.538Z,98188.83
2019-04-10T11:29:17.585Z,98181.98
2019-04-10T11:30:20.674Z,98187.33
2019-04-10T11:31:23.842Z,98188.31
2019-04-10T11:32:28.883Z,98186.17
2019-04-10T11:33:32.874Z,98185.54
2019-04-10T11:34:35.863Z,98183.08
2019-04-10T11:35:39.647Z,98182.31
2019-04-10T11:36:42.884Z,98178.38
2019-04-10T11:37:49.584Z,98185.23
2019-04-10T11:38:51.902Z,98186.98
2019-04-10T11:39:56.399Z,98187.37
2019-04-10T11:41:00.090Z,98181.11
2019-04-10T11:42:04.149Z,98184.46
2019-04-10T11:43:07.682Z,98178.64
2019-04-10T11:44:11.544Z,98179.60
2019-04-10T11:45:17.007Z,98175.73
2019-04-10T11:46:20.004Z,98181.80
2019-04-10T11:47:24.746Z,98177.61
2019-04-10T11:48:29.132Z,98173.40
2019-04-10T11:49:33.338Z,98183.12
2019-04-10T11:50:38.085Z,98180.20
2019-04-10T11:51:39.907Z,98183.55
2019-04-10T11:54:53.174Z,98173.71
2019-04-10T11:55:56.989Z,98171.05
2019-04-10T11:58:05.362Z,98178.72
2019-04-10T11:59:11.566Z,98184.16
2019-04-10T12:00:17.531Z,98173.45
2019-04-10T12:01:21.160Z,98179.56
2019-04-10T12:02:24.961Z,98175.09
2019-04-10T12:03:27.201Z,98171.84
2019-04-10T12:04:30.861Z,98173.02
2019-04-10T12:05:38.087Z,98172.02
2019-04-10T12:06:40.477Z,98167.03
2019-04-10T12:08:28.038Z,98173.47
2019-04-10T12:09:08.401Z,98175.59
2019-04-10T12:12:01.415Z,98183.20
2019-04-10T12:13:04.593Z,98179.94
2019-04-10T12:14:07.666Z,98179.23
2019-04-10T12:15:10.384Z,98183.94
2019-04-10T12:16:12.654Z,98177.56
2019-04-10T12:17:17.967Z,98180.06
2019-04-10T12:18:20.384Z,98181.16
2019-04-10T12:19:25.074Z,98177.56
2019-04-10T12:20:31.102Z,98174.50
2019-04-10T12:21:33.751Z,98179.89
2019-04-10T12:22:37.907Z,98172.98
2019-04-10T12:23:40.938Z,98174.36
2019-04-10T12:24:43.326Z,98178.54
2019-04-10T12:25:47.104Z,98176.23
2019-04-10T12:26:49.882Z,98177.63
2019-04-10T12:27:51.995Z,98182.66
2019-04-10T12:28:54.068Z,98180.77